Private Wetterstation Wechselburg
Wetterdaten: Sonntag, 08.08.2021
Datum Zeit Temp. +2m Bodentemp. Temp.+5cm Temp. Wind Windchill X Diff Temp. Feuchte +2m Feuchte +5cm Luftdruck Regen Wind Richtung Richtung Sonnenschein Taupunkt Windchill Windben
08.08.2021 00:00 14,9 C 19,6 C 15,4 C 15,3 C 15,3 C 0,4 C 87 % 93 % 1005,1 hPa 0,0 l/m 0,0 km/h (0 Bft) S-SO 157 0 min 12,8 C 15,3 C 0,0 km/h (0 Bft)
08.08.2021 00:05 14,8 C 19,6 C 15,4 C 15,3 C 15,3 C 0,5 C 87 % 93 % 1005,1 hPa 0,0 l/m 0,0 km/h (0 Bft) W-SW 247 0 min 12,7 C 15,3 C 0,0 km/h (0 Bft)
08.08.2021 00:11 14,7 C 19,6 C 15,3 C 15,2 C 15,2 C 0,5 C 87 % 93 % 1005,1 hPa 0,0 l/m 0,0 km/h (0 Bft) N 0 0 min 12,6 C 15,2 C 0,0 km/h (0 Bft)
08.08.2021 00:26 14,5 C 19,6 C 15,3 C 15,0 C 15,0 C 0,5 C 87 % 93 % 1004,6 hPa 0,0 l/m 0,0 km/h (0 Bft) SO 135 0 min 12,4 C 15,0 C 0,0 km/h (0 Bft)
08.08.2021 00:27 14,5 C 19,6 C 15,3 C 15,0 C 15,0 C 0,5 C 87 % 93 % 1004,6 hPa 0,0 l/m 0,0 km/h (0 Bft) SO 135 0 min 12,4 C 15,0 C 0,0 km/h (0 Bft)
08.08.2021 00:40 14,5 C 19,6 C 15,1 C 14,7 C 14,7 C 0,2 C 87 % 93 % 1005,2 hPa 0,0 l/m 0,2 km/h (0 Bft) S 180 0 min 12,4 C 14,7 C 1,8 km/h (1 Bft)
08.08.2021 00:41 14,5 C 19,6 C 15,1 C 14,7 C 14,7 C 0,2 C 87 % 93 % 1005,2 hPa 0,0 l/m 0,2 km/h (0 Bft) S 180 0 min 12,4 C 14,7 C 1,8 km/h (1 Bft)
08.08.2021 00:45 14,5 C 19,6 C 15,1 C 14,7 C 14,7 C 0,2 C 87 % 93 % 1005,2 hPa 0,0 l/m 0,2 km/h (0 Bft) S 180 0 min 12,4 C 14,7 C 1,8 km/h (1 Bft)
08.08.2021 00:50 14,3 C 19,6 C 15,1 C 14,7 C 14,7 C 0,4 C 87 % 93 % 1005,2 hPa 0,0 l/m 0,2 km/h (0 Bft) S 180 0 min 12,2 C 14,7 C 0,0 km/h (0 Bft)
08.08.2021 00:55 14,3 C 19,5 C 15,0 C 14,7 C 14,7 C 0,4 C 87 % 93 % 1005,2 hPa 0,0 l/m 0,3 km/h (0 Bft) S 180 0 min 12,2 C 14,7 C 2,9 km/h (1 Bft)
08.08.2021 01:00 14,3 C 19,5 C 15,0 C 14,7 C 14,7 C 0,4 C 87 % 93 % 1005,5 hPa 0,0 l/m 0,2 km/h (0 Bft) S-SO 157 0 min 12,2 C 14,7 C 0,0 km/h (0 Bft)
08.08.2021 01:05 14,3 C 19,5 C 15,0 C 14,7 C 14,7 C 0,4 C 87 % 93 % 1005,5 hPa 0,0 l/m 0,2 km/h (0 Bft) S-SO 157 0 min 12,2 C 14,7 C 0,0 km/h (0 Bft)
08.08.2021 01:10 14,1 C 19,5 C 15,0 C 14,7 C 14,7 C 0,6 C 87 % 93 % 1005,5 hPa 0,0 l/m 0,3 km/h (0 Bft) SW 225 0 min 12,0 C 14,7 C 1,8 km/h (1 Bft)
08.08.2021 01:15 14,1 C 19,5 C 15,0 C 14,7 C 14,7 C 0,6 C 87 % 93 % 1005,5 hPa 0,0 l/m 0,3 km/h (0 Bft) S 180 0 min 12,0 C 14,7 C 0,0 km/h (0 Bft)
08.08.2021 01:20 14,0 C 19,5 C 14,9 C 14,7 C 14,7 C 0,7 C 87 % 93 % 1005,7 hPa 0,0 l/m 0,3 km/h (0 Bft) S-SW 202 0 min 11,9 C 14,7 C 4,7 km/h (1 Bft)
08.08.2021 01:25 14,1 C 19,5 C 14,9 C 14,6 C 14,6 C 0,5 C 87 % 93 % 1005,7 hPa 0,0 l/m 0,2 km/h (0 Bft) S-SO 157 0 min 12,0 C 14,6 C 0,0 km/h (0 Bft)
08.08.2021 01:30 14,0 C 19,5 C 14,8 C 14,7 C 14,7 C 0,7 C 87 % 93 % 1005,7 hPa 0,0 l/m 0,2 km/h (0 Bft) S-SO 157 0 min 11,9 C 14,7 C 0,0 km/h (0 Bft)
08.08.2021 01:35 13,9 C 19,5 C 14,9 C 14,7 C 14,7 C 0,8 C 87 % 93 % 1005,7 hPa 0,0 l/m 0,2 km/h (0 Bft) S 180 0 min 11,8 C 14,7 C 0,0 km/h (0 Bft)
08.08.2021 01:40 13,9 C 19,5 C 14,8 C 14,7 C 14,7 C 0,8 C 87 % 93 % 1005,8 hPa 0,0 l/m 0,2 km/h (0 Bft) S-SO 157 0 min 11,8 C 14,7 C 0,0 km/h (0 Bft)
08.08.2021 01:45 13,8 C 19,5 C 14,9 C 14,7 C 14,7 C 0,9 C 87 % 93 % 1005,8 hPa 0,0 l/m 0,2 km/h (0 Bft) S-SW 202 0 min 11,7 C 14,7 C 0,0 km/h (0 Bft)
08.08.2021 01:50 13,9 C 19,5 C 14,8 C 14,7 C 14,7 C 0,8 C 87 % 93 % 1005,8 hPa 0,0 l/m 0,2 km/h (0 Bft) S 180 0 min 11,8 C 14,7 C 0,0 km/h (0 Bft)
08.08.2021 01:55 13,9 C 19,5 C 14,8 C 14,7 C 14,7 C 0,8 C 87 % 93 % 1005,8 hPa 0,0 l/m 0,2 km/h (0 Bft) NO 45 0 min 11,8 C 14,7 C 0,0 km/h (0 Bft)
08.08.2021 02:00 13,7 C 19,5 C 14,7 C 14,5 C 14,5 C 0,8 C 87 % 93 % 1006,0 hPa 0,0 l/m 0,0 km/h (0 Bft) SW 225 0 min 11,6 C 14,5 C 0,0 km/h (0 Bft)
08.08.2021 02:05 13,7 C 19,5 C 14,7 C 14,5 C 14,5 C 0,8 C 87 % 93 % 1006,0 hPa 0,0 l/m 0,2 km/h (0 Bft) S 180 0 min 11,6 C 14,5 C 0,0 km/h (0 Bft)
08.08.2021 02:11 13,6 C 19,4 C 14,7 C 14,4 C 14,4 C 0,8 C 87 % 93 % 1006,0 hPa 0,0 l/m 0,2 km/h (0 Bft) N 0 0 min 11,5 C 14,4 C 0,0 km/h (0 Bft)
08.08.2021 02:26 13,5 C 19,5 C 14,5 C 14,3 C 14,3 C 0,8 C 87 % 93 % 1005,9 hPa 0,0 l/m 0,2 km/h (0 Bft) S-SO 157 0 min 11,4 C 14,3 C 0,0 km/h (0 Bft)
08.08.2021 02:27 13,5 C 19,5 C 14,5 C 14,3 C 14,3 C 0,8 C 87 % 93 % 1005,9 hPa 0,0 l/m 0,2 km/h (0 Bft) S-SO 157 0 min 11,4 C 14,3 C 0,0 km/h (0 Bft)
08.08.2021 02:40 13,5 C 19,5 C 14,5 C 14,2 C 14,2 C 0,7 C 87 % 93 % 1005,8 hPa 0,0 l/m 0,0 km/h (0 Bft) S 180 0 min 11,4 C 14,2 C 0,0 km/h (0 Bft)
08.08.2021 02:45 13,4 C 19,5 C 14,5 C 14,2 C 14,2 C 0,8 C 87 % 93 % 1005,8 hPa 0,0 l/m 0,2 km/h (0 Bft) S 180 0 min 11,3 C 14,2 C 3,2 km/h (1 Bft)
08.08.2021 02:50 13,5 C 19,5 C 14,5 C 14,3 C 14,3 C 0,8 C 87 % 93 % 1005,8 hPa 0,0 l/m 0,2 km/h (0 Bft) SO 135 0 min 11,4 C 14,3 C 0,0 km/h (0 Bft)
08.08.2021 02:55 13,5 C 19,5 C 14,5 C 14,3 C 14,3 C 0,8 C 87 % 93 % 1005,8 hPa 0,0 l/m 0,3 km/h (0 Bft) S 180 0 min 11,4 C 14,3 C 2,3 km/h (1 Bft)
08.08.2021 03:00 13,4 C 19,5 C 14,5 C 14,3 C 14,3 C 0,9 C 87 % 93 % 1005,8 hPa 0,0 l/m 0,5 km/h (0 Bft) SW 225 0 min 11,3 C 14,3 C 0,0 km/h (0 Bft)
08.08.2021 03:05 13,3 C 19,4 C 14,5 C 14,3 C 14,3 C 1,0 C 87 % 93 % 1005,8 hPa 0,0 l/m 0,5 km/h (0 Bft) SO 135 0 min 11,2 C 14,3 C 2,9 km/h (1 Bft)
08.08.2021 03:10 13,4 C 19,3 C 14,5 C 14,3 C 14,3 C 0,9 C 87 % 93 % 1005,8 hPa 0,0 l/m 0,3 km/h (0 Bft) SW 225 0 min 11,3 C 14,3 C 0,0 km/h (0 Bft)
08.08.2021 03:15 13,4 C 19,3 C 14,5 C 14,3 C 14,3 C 0,9 C 87 % 93 % 1005,8 hPa 0,0 l/m 0,3 km/h (0 Bft) S 180 0 min 11,3 C 14,3 C 0,0 km/h (0 Bft)
08.08.2021 03:20 13,3 C 19,3 C 14,5 C 14,4 C 14,4 C 1,1 C 87 % 93 % 1005,6 hPa 0,0 l/m 0,5 km/h (0 Bft) W-SW 247 0 min 11,2 C 14,4 C 0,0 km/h (0 Bft)
08.08.2021 03:25 13,3 C 19,3 C 14,5 C 14,5 C 14,5 C 1,2 C 87 % 93 % 1005,6 hPa 0,0 l/m 0,8 km/h (0 Bft) S 180 0 min 11,2 C 14,5 C 0,0 km/h (0 Bft)
08.08.2021 03:30 13,3 C 19,3 C 14,5 C 14,5 C 14,5 C 1,2 C 87 % 93 % 1005,6 hPa 0,0 l/m 1,0 km/h (0 Bft) NO 45 0 min 11,2 C 14,5 C 5,5 km/h (1 Bft)
08.08.2021 03:35 13,3 C 19,3 C 14,5 C 14,5 C 14,5 C 1,2 C 87 % 93 % 1005,6 hPa 0,0 l/m 0,5 km/h (0 Bft) W-SW 247 0 min 11,2 C 14,5 C 2,1 km/h (1 Bft)
08.08.2021 03:40 13,4 C 19,3 C 14,5 C 14,5 C 14,5 C 1,1 C 87 % 93 % 1005,8 hPa 0,0 l/m 0,2 km/h (0 Bft) SW 225 0 min 11,3 C 14,5 C 0,0 km/h (0 Bft)
08.08.2021 03:45 13,3 C 19,2 C 14,5 C 14,5 C 14,5 C 1,2 C 87 % 93 % 1005,8 hPa 0,0 l/m 0,3 km/h (0 Bft) SO 135 0 min 11,2 C 14,5 C 0,0 km/h (0 Bft)
08.08.2021 03:50 13,3 C 19,2 C 14,5 C 14,4 C 14,4 C 1,1 C 87 % 93 % 1005,8 hPa 0,0 l/m 0,2 km/h (0 Bft) S-SO 157 0 min 11,2 C 14,4 C 1,8 km/h (1 Bft)
08.08.2021 03:55 13,3 C 19,2 C 14,5 C 14,4 C 14,4 C 1,1 C 88 % 93 % 1005,8 hPa 0,0 l/m 0,5 km/h (0 Bft) S-SW 202 0 min 11,4 C 14,4 C 0,0 km/h (0 Bft)
08.08.2021 04:00 13,4 C 19,2 C 14,4 C 14,5 C 14,5 C 1,1 C 88 % 93 % 1006,0 hPa 0,0 l/m 0,6 km/h (0 Bft) SW 225 0 min 11,5 C 14,5 C 1,6 km/h (1 Bft)
08.08.2021 04:05 13,3 C 19,2 C 14,4 C 14,5 C 14,5 C 1,2 C 87 % 93 % 1006,0 hPa 0,0 l/m 0,5 km/h (0 Bft) SO 135 0 min 11,2 C 14,5 C 0,0 km/h (0 Bft)
08.08.2021 04:11 13,3 C 19,2 C 14,4 C 14,4 C 14,4 C 1,1 C 87 % 93 % 1006,0 hPa 0,0 l/m 0,3 km/h (0 Bft) N 0 0 min 11,2 C 14,4 C 0,0 km/h (0 Bft)
08.08.2021 04:26 13,2 C 19,1 C 14,4 C 14,3 C 14,3 C 1,1 C 87 % 93 % 1006,0 hPa 0,0 l/m 0,2 km/h (0 Bft) S-SW 202 0 min 11,1 C 14,3 C 6,1 km/h (2 Bft)
08.08.2021 04:39 13,3 C 19,1 C 14,4 C 14,5 C 14,5 C 1,2 C 88 % 93 % 1006,2 hPa 0,0 l/m 1,1 km/h (1 Bft) SW 225 0 min 11,4 C 14,5 C 2,6 km/h (1 Bft)
08.08.2021 04:40 13,3 C 19,1 C 14,4 C 14,5 C 14,5 C 1,2 C 88 % 93 % 1006,2 hPa 0,0 l/m 1,1 km/h (1 Bft) SW 225 0 min 11,4 C 14,5 C 2,6 km/h (1 Bft)
08.08.2021 04:45 13,3 C 19,1 C 14,4 C 14,5 C 14,5 C 1,2 C 88 % 93 % 1006,2 hPa 0,0 l/m 0,8 km/h (0 Bft) S 180 0 min 11,4 C 14,5 C 0,0 km/h (0 Bft)
08.08.2021 04:50 13,3 C 19,1 C 14,4 C 14,5 C 14,5 C 1,2 C 88 % 93 % 1006,2 hPa 0,0 l/m 0,3 km/h (0 Bft) SW 225 0 min 11,4 C 14,5 C 1,6 km/h (1 Bft)
08.08.2021 04:55 13,2 C 19,1 C 14,3 C 14,5 C 14,5 C 1,3 C 87 % 93 % 1006,2 hPa 0,0 l/m 0,2 km/h (0 Bft) W 270 0 min 11,1 C 14,5 C 0,0 km/h (0 Bft)
08.08.2021 05:00 13,2 C 19,1 C 14,3 C 14,5 C 14,5 C 1,3 C 88 % 93 % 1006,4 hPa 0,0 l/m 0,5 km/h (0 Bft) W-SW 247 0 min 11,3 C 14,5 C 7,2 km/h (2 Bft)
08.08.2021 05:05 13,2 C 19,1 C 14,3 C 14,4 C 14,4 C 1,2 C 88 % 93 % 1006,4 hPa 0,0 l/m 0,3 km/h (0 Bft) W-SW 247 0 min 11,3 C 14,4 C 0,0 km/h (0 Bft)
08.08.2021 05:10 13,3 C 19,1 C 14,3 C 14,3 C 14,3 C 1,0 C 88 % 93 % 1006,4 hPa 0,0 l/m 0,0 km/h (0 Bft) S 180 0 min 11,4 C 14,3 C 0,0 km/h (0 Bft)
08.08.2021 05:15 13,2 C 19,0 C 14,3 C 14,2 C 14,2 C 1,0 C 88 % 93 % 1006,4 hPa 0,0 l/m 0,2 km/h (0 Bft) SW 225 0 min 11,3 C 14,2 C 0,0 km/h (0 Bft)
08.08.2021 05:20 13,1 C 19,1 C 14,2 C 14,0 C 14,0 C 0,9 C 88 % 94 % 1006,9 hPa 0,0 l/m 0,2 km/h (0 Bft) S-SW 202 0 min 11,2 C 14,0 C 0,0 km/h (0 Bft)
08.08.2021 05:25 13,1 C 19,0 C 14,1 C 14,0 C 14,0 C 0,9 C 88 % 94 % 1006,9 hPa 0,0 l/m 0,2 km/h (0 Bft) S-SW 202 0 min 11,2 C 14,0 C 0,0 km/h (0 Bft)
08.08.2021 05:30 13,1 C 19,1 C 14,1 C 13,9 C 13,9 C 0,8 C 88 % 94 % 1006,9 hPa 0,0 l/m 0,0 km/h (0 Bft) S 180 0 min 11,2 C 13,9 C 0,0 km/h (0 Bft)
08.08.2021 05:35 13,0 C 19,0 C 14,1 C 13,8 C 13,8 C 0,8 C 88 % 94 % 1006,9 hPa 0,0 l/m 0,0 km/h (0 Bft) O-SO 112 0 min 11,1 C 13,8 C 0,0 km/h (0 Bft)
08.08.2021 05:40 13,0 C 19,1 C 14,2 C 13,9 C 13,9 C 0,9 C 88 % 93 % 1006,9 hPa 0,0 l/m 0,0 km/h (0 Bft) S-SO 157 0 min 11,1 C 13,9 C 0,0 km/h (0 Bft)
08.08.2021 05:45 13,1 C 19,1 C 14,2 C 13,9 C 13,9 C 0,8 C 88 % 93 % 1006,9 hPa 0,0 l/m 0,2 km/h (0 Bft) SW 225 0 min 11,2 C 13,9 C 0,0 km/h (0 Bft)
08.08.2021 05:50 13,1 C 19,0 C 14,2 C 14,0 C 14,0 C 0,9 C 88 % 93 % 1006,9 hPa 0,0 l/m 0,3 km/h (0 Bft) S-SO 157 0 min 11,2 C 14,0 C 0,0 km/h (0 Bft)
08.08.2021 05:55 13,0 C 19,0 C 14,2 C 14,0 C 14,0 C 1,0 C 88 % 93 % 1006,9 hPa 0,0 l/m 0,3 km/h (0 Bft) S-SW 202 0 min 11,1 C 14,0 C 2,7 km/h (1 Bft)
08.08.2021 06:00 13,1 C 19,0 C 14,3 C 14,1 C 14,1 C 1,0 C 88 % 93 % 1007,1 hPa 0,0 l/m 0,3 km/h (0 Bft) S-SO 157 5 min 11,2 C 14,1 C 0,0 km/h (0 Bft)
08.08.2021 06:05 13,0 C 18,9 C 14,3 C 14,3 C 14,3 C 1,3 C 88 % 93 % 1007,1 hPa 0,0 l/m 0,8 km/h (0 Bft) S-SW 202 5 min 11,1 C 14,3 C 0,0 km/h (0 Bft)
08.08.2021 06:11 13,1 C 18,9 C 14,3 C 14,5 C 14,5 C 1,4 C 88 % 93 % 1007,1 hPa 0,0 l/m 0,3 km/h (0 Bft) N 0 6 min 11,2 C 14,5 C 0,0 km/h (0 Bft)
08.08.2021 06:26 13,1 C 18,9 C 14,3 C 14,6 C 14,6 C 1,5 C 88 % 93 % 1007,4 hPa 0,0 l/m 0,6 km/h (0 Bft) S 180 15 min 11,2 C 14,6 C 7,7 km/h (2 Bft)
08.08.2021 06:39 13,2 C 18,8 C 14,3 C 14,7 C 14,7 C 1,5 C 88 % 93 % 1007,8 hPa 0,0 l/m 0,3 km/h (0 Bft) O-NO 67 13 min 11,3 C 14,7 C 0,0 km/h (0 Bft)
08.08.2021 06:45 13,2 C 18,8 C 14,3 C 14,7 C 14,7 C 1,5 C 88 % 93 % 1007,8 hPa 0,0 l/m 0,3 km/h (0 Bft) W-SW 247 6 min 11,3 C 14,7 C 0,0 km/h (0 Bft)
08.08.2021 06:50 13,2 C 18,8 C 14,3 C 14,8 C 14,8 C 1,6 C 88 % 93 % 1007,8 hPa 0,0 l/m 0,5 km/h (0 Bft) S-SO 157 5 min 11,3 C 14,8 C 0,0 km/h (0 Bft)
08.08.2021 06:55 13,2 C 18,8 C 14,3 C 14,8 C 14,8 C 1,6 C 88 % 93 % 1007,8 hPa 0,0 l/m 0,2 km/h (0 Bft) S 180 0 min 11,3 C 14,8 C 0,0 km/h (0 Bft)
08.08.2021 07:00 13,3 C 18,8 C 14,3 C 14,7 C 14,7 C 1,4 C 88 % 93 % 1008,0 hPa 0,0 l/m 0,0 km/h (0 Bft) S-SW 202 0 min 11,4 C 14,7 C 0,0 km/h (0 Bft)
08.08.2021 07:05 13,3 C 18,8 C 14,6 C 14,8 C 14,8 C 1,5 C 88 % 93 % 1008,0 hPa 0,0 l/m 0,2 km/h (0 Bft) NO 45 0 min 11,4 C 14,8 C 2,6 km/h (1 Bft)
08.08.2021 07:10 13,2 C 18,8 C 14,9 C 15,4 C 15,4 C 2,2 C 88 % 93 % 1008,0 hPa 0,0 l/m 0,2 km/h (0 Bft) S-SW 202 5 min 11,3 C 15,4 C 0,0 km/h (0 Bft)
08.08.2021 07:15 13,3 C 18,8 C 15,1 C 16,6 C 16,6 C 3,3 C 88 % 93 % 1008,0 hPa 0,0 l/m 0,2 km/h (0 Bft) W 270 5 min 11,4 C 16,6 C 0,0 km/h (0 Bft)
08.08.2021 07:20 13,5 C 18,8 C 15,4 C 19,7 C 19,7 C 6,2 C 88 % 93 % 1008,3 hPa 0,0 l/m 0,2 km/h (0 Bft) S-SO 157 5 min 11,6 C 19,7 C 2,1 km/h (1 Bft)
08.08.2021 07:25 13,7 C 18,7 C 15,4 C 21,3 C 21,3 C 7,6 C 88 % 93 % 1008,3 hPa 0,0 l/m 0,3 km/h (0 Bft) S 180 5 min 11,7 C 21,3 C 2,3 km/h (1 Bft)
08.08.2021 07:30 14,1 C 18,7 C 15,6 C 22,7 C 22,7 C 8,6 C 88 % 93 % 1008,3 hPa 0,0 l/m 0,8 km/h (0 Bft) SO 135 5 min 12,1 C 22,7 C 2,3 km/h (1 Bft)
08.08.2021 07:35 14,3 C 18,7 C 15,7 C 23,5 C 23,5 C 9,2 C 88 % 94 % 1008,3 hPa 0,0 l/m 1,1 km/h (1 Bft) SO 135 5 min 12,3 C 23,5 C 8,5 km/h (2 Bft)
08.08.2021 07:40 14,5 C 18,7 C 15,8 C 24,1 C 24,1 C 9,6 C 88 % 94 % 1008,3 hPa 0,0 l/m 1,3 km/h (1 Bft) SW 225 5 min 12,5 C 24,1 C 0,0 km/h (0 Bft)
08.08.2021 07:45 14,7 C 18,7 C 15,9 C 24,3 C 24,3 C 9,6 C 88 % 94 % 1008,3 hPa 0,0 l/m 1,4 km/h (1 Bft) S 180 5 min 12,7 C 24,3 C 3,5 km/h (1 Bft)
08.08.2021 07:50 14,9 C 18,7 C 16,0 C 24,7 C 24,7 C 9,8 C 88 % 94 % 1008,3 hPa 0,0 l/m 1,6 km/h (1 Bft) S-SO 157 5 min 12,9 C 24,7 C 0,0 km/h (0 Bft)
08.08.2021 07:55 15,1 C 18,6 C 16,1 C 24,8 C 24,8 C 9,7 C 88 % 94 % 1008,3 hPa 0,0 l/m 2,1 km/h (1 Bft) N-NO 22 5 min 13,1 C 24,8 C 6,6 km/h (2 Bft)
08.08.2021 08:00 15,3 C 18,6 C 16,2 C 25,2 C 25,2 C 9,9 C 87 % 94 % 1008,2 hPa 0,0 l/m 1,3 km/h (1 Bft) S 180 5 min 13,1 C 25,2 C 4,3 km/h (1 Bft)
08.08.2021 08:05 15,5 C 18,6 C 16,3 C 25,5 C 25,5 C 10,0 C 88 % 94 % 1008,2 hPa 0,0 l/m 1,3 km/h (1 Bft) SO 135 5 min 13,5 C 25,5 C 2,3 km/h (1 Bft)
08.08.2021 08:11 15,8 C 18,6 C 16,5 C 25,8 C 25,8 C 10,0 C 87 % 94 % 1008,2 hPa 0,0 l/m 1,4 km/h (1 Bft) N 0 6 min 13,6 C 25,8 C 2,9 km/h (1 Bft)
08.08.2021 08:26 17,1 C 18,5 C 16,7 C 26,2 C 26,2 C 9,1 C 87 % 94 % 1008,6 hPa 0,0 l/m 2,7 km/h (1 Bft) S 180 15 min 14,9 C 26,2 C 9,2 km/h (2 Bft)
08.08.2021 08:27 17,1 C 18,5 C 16,7 C 26,2 C 26,2 C 9,1 C 87 % 94 % 1008,6 hPa 0,0 l/m 2,7 km/h (1 Bft) S 180 1 min 14,9 C 26,2 C 2,4 km/h (1 Bft)
08.08.2021 08:40 18,0 C 18,5 C 16,9 C 26,2 C 26,2 C 8,2 C 87 % 94 % 1009,1 hPa 0,0 l/m 3,1 km/h (1 Bft) W-SW 247 13 min 15,8 C 26,2 C 2,4 km/h (1 Bft)
08.08.2021 08:45 18,0 C 18,5 C 16,9 C 26,2 C 26,2 C 8,2 C 87 % 94 % 1009,1 hPa 0,0 l/m 3,1 km/h (1 Bft) W-SW 247 5 min 15,8 C 26,2 C 2,4 km/h (1 Bft)
08.08.2021 08:50 18,3 C 18,4 C 17,0 C 26,5 C 26,5 C 8,2 C 86 % 94 % 1009,1 hPa 0,0 l/m 2,6 km/h (1 Bft) N 360 5 min 15,9 C 26,5 C 9,5 km/h (2 Bft)
08.08.2021 08:55 18,5 C 18,4 C 17,0 C 26,5 C 26,5 C 8,0 C 86 % 94 % 1009,1 hPa 0,0 l/m 2,4 km/h (1 Bft) SW 225 5 min 16,1 C 26,5 C 3,9 km/h (1 Bft)
08.08.2021 09:00 18,5 C 18,3 C 17,1 C 26,2 C 26,2 C 7,7 C 84 % 94 % 1009,1 hPa 0,0 l/m 3,7 km/h (1 Bft) SO 135 5 min 15,7 C 26,2 C 5,0 km/h (1 Bft)
08.08.2021 09:05 18,5 C 18,3 C 17,1 C 26,2 C 26,2 C 7,7 C 84 % 94 % 1009,1 hPa 0,0 l/m 3,7 km/h (1 Bft) W-SW 247 5 min 15,7 C 26,2 C 1,8 km/h (1 Bft)
08.08.2021 09:10 18,4 C 18,3 C 17,1 C 25,6 C 25,6 C 7,2 C 83 % 94 % 1009,1 hPa 0,0 l/m 2,9 km/h (1 Bft) SW 225 5 min 15,5 C 25,6 C 3,1 km/h (1 Bft)
08.08.2021 09:15 18,5 C 18,3 C 17,1 C 24,3 C 24,3 C 5,8 C 82 % 94 % 1009,1 hPa 0,0 l/m 2,9 km/h (1 Bft) S-SO 157 5 min 15,4 C 24,3 C 2,6 km/h (1 Bft)
08.08.2021 09:20 18,5 C 18,2 C 17,2 C 22,0 C 22,0 C 3,5 C 82 % 93 % 1009,4 hPa 0,0 l/m 3,5 km/h (1 Bft) NW 315 5 min 15,4 C 22,0 C 11,4 km/h (2 Bft)
08.08.2021 09:25 18,6 C 18,2 C 17,3 C 21,1 C 21,1 C 2,5 C 81 % 93 % 1009,4 hPa 0,0 l/m 2,7 km/h (1 Bft) W-SW 247 0 min 15,3 C 21,1 C 3,2 km/h (1 Bft)
08.08.2021 09:30 18,5 C 18,2 C 17,5 C 20,9 C 20,9 C 2,4 C 80 % 93 % 1009,4 hPa 0,0 l/m 2,9 km/h (1 Bft) S 180 0 min 15,0 C 20,9 C 14,0 km/h (3 Bft)
08.08.2021 09:35 18,5 C 18,2 C 17,7 C 21,1 C 21,1 C 2,6 C 80 % 93 % 1009,4 hPa 0,0 l/m 3,7 km/h (1 Bft) W-SW 247 0 min 15,0 C 21,1 C 4,3 km/h (1 Bft)
08.08.2021 09:40 18,5 C 18,2 C 17,7 C 21,1 C 21,1 C 2,6 C 79 % 92 % 1009,6 hPa 0,0 l/m 3,2 km/h (1 Bft) W-SW 247 0 min 14,8 C 21,1 C 2,9 km/h (1 Bft)
08.08.2021 09:45 18,5 C 18,2 C 17,8 C 21,1 C 21,1 C 2,6 C 79 % 93 % 1009,6 hPa 0,0 l/m 2,9 km/h (1 Bft) S 180 0 min 14,8 C 21,1 C 2,4 km/h (1 Bft)
08.08.2021 09:50 18,5 C 18,1 C 17,9 C 21,3 C 21,3 C 2,8 C 79 % 93 % 1009,6 hPa 0,0 l/m 2,7 km/h (1 Bft) SW 225 0 min 14,8 C 21,3 C 4,8 km/h (1 Bft)
08.08.2021 09:55 18,4 C 18,1 C 17,8 C 21,0 C 21,0 C 2,6 C 78 % 92 % 1009,6 hPa 0,0 l/m 3,1 km/h (1 Bft) SW 225 0 min 14,5 C 21,0 C 4,5 km/h (1 Bft)
08.08.2021 10:00 18,4 C 18,1 C 17,7 C 20,5 C 20,5 C 2,1 C 77 % 91 % 1009,6 hPa 0,0 l/m 3,4 km/h (1 Bft) W-SW 247 0 min 14,3 C 20,5 C 4,3 km/h (1 Bft)
08.08.2021 10:05 18,3 C 18,1 C 17,9 C 20,6 C 20,6 C 2,3 C 77 % 91 % 1009,6 hPa 0,0 l/m 3,4 km/h (1 Bft) O-SO 112 0 min 14,2 C 20,6 C 4,7 km/h (1 Bft)
08.08.2021 10:11 18,7 C 18,1 C 18,1 C 21,1 C 21,1 C 2,4 C 76 % 91 % 1009,6 hPa 0,0 l/m 3,9 km/h (1 Bft) N 0 0 min 14,4 C 21,1 C 3,1 km/h (1 Bft)
08.08.2021 10:26 18,8 C 18,0 C 18,4 C 21,7 C 21,7 C 2,9 C 75 % 88 % 1009,7 hPa 0,0 l/m 3,2 km/h (1 Bft) SW 225 0 min 14,3 C 21,7 C 3,1 km/h (1 Bft)
08.08.2021 10:39 19,1 C 18,0 C 18,5 C 21,8 C 21,8 C 2,7 C 72 % 88 % 1009,8 hPa 0,0 l/m 3,4 km/h (1 Bft) S-SO 157 0 min 13,9 C 21,8 C 5,3 km/h (1 Bft)
08.08.2021 10:45 19,0 C 18,0 C 18,5 C 21,6 C 21,6 C 2,6 C 73 % 88 % 1009,8 hPa 0,0 l/m 2,9 km/h (1 Bft) SO 135 0 min 14,0 C 21,6 C 1,6 km/h (1 Bft)
08.08.2021 10:50 19,2 C 18,0 C 18,4 C 21,4 C 21,4 C 2,2 C 71 % 87 % 1009,8 hPa 0,0 l/m 3,5 km/h (1 Bft) SW 225 0 min 13,8 C 21,4 C 6,4 km/h (2 Bft)
08.08.2021 10:55 19,3 C 18,0 C 18,5 C 21,6 C 21,6 C 2,3 C 71 % 87 % 1009,8 hPa 0,0 l/m 3,9 km/h (1 Bft) SW 225 0 min 13,9 C 21,6 C 4,8 km/h (1 Bft)
08.08.2021 11:00 19,5 C 18,0 C 18,7 C 22,0 C 22,0 C 2,5 C 71 % 87 % 1010,0 hPa 0,0 l/m 3,4 km/h (1 Bft) W-SW 247 0 min 14,1 C 22,0 C 2,9 km/h (1 Bft)
08.08.2021 11:05 19,4 C 18,0 C 18,7 C 22,4 C 22,4 C 3,0 C 71 % 87 % 1010,0 hPa 0,0 l/m 2,6 km/h (1 Bft) W-NW 292 0 min 14,0 C 22,4 C 1,8 km/h (1 Bft)
08.08.2021 11:10 19,7 C 18,0 C 18,9 C 23,1 C 23,1 C 3,4 C 71 % 86 % 1010,0 hPa 0,0 l/m 2,7 km/h (1 Bft) SO 135 5 min 14,3 C 23,1 C 3,9 km/h (1 Bft)
08.08.2021 11:15 19,6 C 18,0 C 18,9 C 22,5 C 22,5 C 2,9 C 70 % 86 % 1010,0 hPa 0,0 l/m 2,9 km/h (1 Bft) S-SW 202 0 min 14,0 C 22,5 C 3,1 km/h (1 Bft)
08.08.2021 11:20 19,7 C 18,0 C 18,8 C 21,6 C 21,6 C 1,9 C 69 % 84 % 1010,2 hPa 0,0 l/m 3,7 km/h (1 Bft) SW 225 0 min 13,8 C 21,6 C 3,4 km/h (1 Bft)
08.08.2021 11:25 19,7 C 18,0 C 18,9 C 21,3 C 21,3 C 1,6 C 69 % 85 % 1010,2 hPa 0,0 l/m 3,4 km/h (1 Bft) S-SO 157 0 min 13,8 C 21,3 C 2,9 km/h (1 Bft)
08.08.2021 11:30 19,8 C 18,0 C 19,0 C 21,3 C 21,3 C 1,5 C 69 % 82 % 1010,2 hPa 0,0 l/m 3,1 km/h (1 Bft) SW 225 0 min 13,9 C 21,3 C 5,3 km/h (1 Bft)
08.08.2021 11:35 19,9 C 18,0 C 19,2 C 21,6 C 21,6 C 1,7 C 68 % 83 % 1010,2 hPa 0,0 l/m 3,4 km/h (1 Bft) W-SW 247 0 min 13,8 C 21,6 C 7,6 km/h (2 Bft)
08.08.2021 11:40 20,1 C 18,0 C 19,5 C 22,0 C 22,0 C 1,9 C 68 % 81 % 1010,1 hPa 0,0 l/m 3,9 km/h (1 Bft) SO 135 0 min 14,0 C 22,0 C 5,3 km/h (1 Bft)
08.08.2021 11:45 20,2 C 18,0 C 19,6 C 22,4 C 22,4 C 2,2 C 67 % 81 % 1010,1 hPa 0,0 l/m 4,0 km/h (1 Bft) O-SO 112 0 min 13,9 C 22,4 C 4,7 km/h (1 Bft)
08.08.2021 11:50 20,5 C 18,0 C 19,8 C 22,8 C 22,8 C 2,3 C 67 % 81 % 1010,1 hPa 0,0 l/m 3,5 km/h (1 Bft) W-SW 247 0 min 14,2 C 22,8 C 4,0 km/h (1 Bft)
08.08.2021 11:55 20,5 C 18,0 C 19,9 C 23,0 C 23,0 C 2,5 C 66 % 79 % 1010,1 hPa 0,0 l/m 3,7 km/h (1 Bft) SW 225 0 min 13,9 C 23,0 C 5,5 km/h (1 Bft)
08.08.2021 12:00 20,6 C 18,0 C 20,1 C 23,3 C 23,3 C 2,7 C 66 % 79 % 1010,4 hPa 0,0 l/m 3,4 km/h (1 Bft) SW 225 0 min 14,0 C 23,3 C 4,3 km/h (1 Bft)
08.08.2021 12:05 20,8 C 18,0 C 20,1 C 23,3 C 23,3 C 2,5 C 66 % 77 % 1010,4 hPa 0,0 l/m 3,2 km/h (1 Bft) S 180 0 min 14,2 C 23,3 C 2,6 km/h (1 Bft)
08.08.2021 12:11 20,9 C 18,0 C 20,2 C 23,6 C 23,6 C 2,7 C 65 % 78 % 1010,4 hPa 0,0 l/m 2,4 km/h (1 Bft) N 0 0 min 14,1 C 23,6 C 2,1 km/h (1 Bft)
08.08.2021 12:26 21,7 C 18,0 C 20,7 C 24,3 C 24,3 C 2,6 C 64 % 74 % 1010,7 hPa 0,0 l/m 2,7 km/h (1 Bft) SO 135 0 min 14,6 C 24,3 C 3,4 km/h (1 Bft)
08.08.2021 12:27 21,7 C 18,0 C 20,7 C 24,3 C 24,3 C 2,6 C 64 % 74 % 1010,7 hPa 0,0 l/m 2,7 km/h (1 Bft) SO 135 0 min 14,6 C 24,3 C 3,4 km/h (1 Bft)
08.08.2021 12:40 21,7 C 18,1 C 20,9 C 26,2 C 26,2 C 4,5 C 61 % 74 % 1010,4 hPa 0,0 l/m 4,0 km/h (1 Bft) SW 225 13 min 13,8 C 26,2 C 3,2 km/h (1 Bft)
08.08.2021 12:45 21,7 C 18,1 C 20,9 C 26,2 C 26,2 C 4,5 C 61 % 74 % 1010,4 hPa 0,0 l/m 4,0 km/h (1 Bft) SW 225 5 min 13,8 C 26,2 C 3,2 km/h (1 Bft)
08.08.2021 12:50 21,6 C 18,0 C 20,9 C 25,4 C 25,4 C 3,8 C 61 % 72 % 1010,4 hPa 0,0 l/m 3,1 km/h (1 Bft) S 180 5 min 13,7 C 25,4 C 1,9 km/h (1 Bft)
08.08.2021 12:55 21,9 C 18,1 C 20,9 C 25,9 C 25,9 C 4,0 C 60 % 72 % 1010,4 hPa 0,0 l/m 3,1 km/h (1 Bft) W-NW 292 5 min 13,8 C 25,9 C 5,1 km/h (1 Bft)
08.08.2021 13:00 21,5 C 18,1 C 20,5 C 24,8 C 24,8 C 3,3 C 59 % 72 % 1010,8 hPa 0,0 l/m 4,3 km/h (1 Bft) SW 225 5 min 13,1 C 24,8 C 5,3 km/h (1 Bft)
08.08.2021 13:05 21,6 C 18,1 C 20,6 C 24,9 C 24,9 C 3,3 C 61 % 72 % 1010,8 hPa 0,0 l/m 3,7 km/h (1 Bft) S-SO 157 5 min 13,7 C 24,9 C 3,2 km/h (1 Bft)
08.08.2021 13:10 21,5 C 18,1 C 20,5 C 24,1 C 24,1 C 2,6 C 61 % 72 % 1010,8 hPa 0,0 l/m 2,9 km/h (1 Bft) S-SO 157 0 min 13,7 C 24,1 C 2,1 km/h (1 Bft)
08.08.2021 13:15 21,5 C 18,1 C 20,5 C 24,1 C 24,1 C 2,6 C 60 % 71 % 1010,8 hPa 0,0 l/m 3,9 km/h (1 Bft) S 180 0 min 13,4 C 24,1 C 4,0 km/h (1 Bft)
08.08.2021 13:20 21,7 C 18,1 C 20,8 C 25,2 C 25,2 C 3,5 C 60 % 71 % 1010,8 hPa 0,0 l/m 4,0 km/h (1 Bft) S 180 5 min 13,6 C 25,2 C 10,5 km/h (2 Bft)
08.08.2021 13:25 21,9 C 18,1 C 20,9 C 25,5 C 25,5 C 3,6 C 60 % 69 % 1010,8 hPa 0,0 l/m 3,9 km/h (1 Bft) S-SO 157 5 min 13,8 C 25,5 C 11,3 km/h (2 Bft)
08.08.2021 13:30 22,1 C 18,1 C 21,2 C 25,9 C 25,9 C 3,8 C 57 % 67 % 1010,8 hPa 0,0 l/m 4,5 km/h (1 Bft) NW 315 5 min 13,2 C 25,9 C 5,0 km/h (1 Bft)
08.08.2021 13:35 22,2 C 18,0 C 21,3 C 26,6 C 26,6 C 4,4 C 57 % 68 % 1010,8 hPa 0,0 l/m 3,9 km/h (1 Bft) S 180 5 min 13,3 C 26,6 C 3,1 km/h (1 Bft)
08.08.2021 13:40 22,4 C 18,0 C 21,2 C 26,2 C 26,2 C 3,8 C 56 % 65 % 1010,9 hPa 0,0 l/m 3,2 km/h (1 Bft) S 180 5 min 13,2 C 26,2 C 0,0 km/h (0 Bft)
08.08.2021 13:45 22,7 C 18,0 C 21,3 C 26,6 C 26,6 C 3,9 C 57 % 66 % 1010,9 hPa 0,0 l/m 3,1 km/h (1 Bft) W-SW 247 5 min 13,7 C 26,6 C 2,7 km/h (1 Bft)
08.08.2021 13:50 23,1 C 18,0 C 21,6 C 28,1 C 28,1 C 5,0 C 54 % 65 % 1010,9 hPa 0,0 l/m 2,9 km/h (1 Bft) S 180 5 min 13,3 C 28,1 C 5,0 km/h (1 Bft)
08.08.2021 13:55 23,1 C 18,0 C 21,7 C 28,2 C 28,2 C 5,1 C 54 % 65 % 1010,9 hPa 0,0 l/m 3,2 km/h (1 Bft) W-SW 247 5 min 13,3 C 28,2 C 3,7 km/h (1 Bft)
08.08.2021 14:00 23,5 C 18,0 C 22,1 C 28,8 C 28,8 C 5,3 C 55 % 64 % 1010,9 hPa 0,0 l/m 3,5 km/h (1 Bft) S-SW 202 5 min 13,9 C 28,8 C 5,3 km/h (1 Bft)
08.08.2021 14:05 23,6 C 18,0 C 22,2 C 28,6 C 28,6 C 5,0 C 54 % 63 % 1010,9 hPa 0,0 l/m 4,0 km/h (1 Bft) S-SO 157 5 min 13,7 C 28,6 C 4,0 km/h (1 Bft)
08.08.2021 14:11 23,6 C 18,0 C 23,0 C 28,9 C 28,9 C 5,3 C 53 % 59 % 1010,9 hPa 0,0 l/m 3,5 km/h (1 Bft) N 0 6 min 13,4 C 28,9 C 3,7 km/h (1 Bft)
08.08.2021 14:26 23,6 C 18,1 C 22,3 C 27,7 C 27,7 C 4,1 C 53 % 61 % 1011,1 hPa 0,0 l/m 3,1 km/h (1 Bft) O-NO 67 15 min 13,4 C 27,7 C 3,7 km/h (1 Bft)
08.08.2021 14:27 23,6 C 18,1 C 22,3 C 27,7 C 27,7 C 4,1 C 53 % 61 % 1011,1 hPa 0,0 l/m 3,1 km/h (1 Bft) O-NO 67 1 min 13,4 C 27,7 C 3,7 km/h (1 Bft)
08.08.2021 14:40 23,0 C 18,1 C 21,9 C 26,1 C 26,1 C 3,1 C 53 % 61 % 1010,9 hPa 0,0 l/m 2,4 km/h (1 Bft) S-SO 157 0 min 12,9 C 26,1 C 2,7 km/h (1 Bft)
08.08.2021 14:45 23,0 C 18,1 C 21,9 C 26,1 C 26,1 C 3,1 C 53 % 61 % 1010,9 hPa 0,0 l/m 2,4 km/h (1 Bft) S-SO 157 0 min 12,9 C 26,1 C 2,7 km/h (1 Bft)
08.08.2021 14:50 22,9 C 18,1 C 21,7 C 25,7 C 25,7 C 2,8 C 53 % 58 % 1010,9 hPa 0,0 l/m 3,1 km/h (1 Bft) S 180 0 min 12,8 C 25,7 C 6,1 km/h (2 Bft)
08.08.2021 14:55 22,7 C 18,1 C 21,6 C 25,0 C 25,0 C 2,3 C 51 % 55 % 1010,9 hPa 0,0 l/m 3,7 km/h (1 Bft) SO 135 0 min 12,0 C 25,0 C 3,5 km/h (1 Bft)
08.08.2021 15:00 22,4 C 18,1 C 21,5 C 24,2 C 24,2 C 1,8 C 51 % 56 % 1011,4 hPa 0,0 l/m 3,7 km/h (1 Bft) S 180 0 min 11,8 C 24,2 C 2,3 km/h (1 Bft)
08.08.2021 15:05 22,5 C 18,1 C 21,8 C 25,2 C 25,2 C 2,7 C 53 % 58 % 1011,4 hPa 0,0 l/m 2,3 km/h (1 Bft) SW 225 0 min 12,4 C 25,2 C 0,0 km/h (0 Bft)
08.08.2021 15:10 22,8 C 18,1 C 22,1 C 26,3 C 26,3 C 3,5 C 53 % 57 % 1011,4 hPa 0,0 l/m 2,6 km/h (1 Bft) SW 225 5 min 12,7 C 26,3 C 2,7 km/h (1 Bft)
08.08.2021 15:15 22,9 C 18,1 C 22,2 C 26,9 C 26,9 C 4,0 C 53 % 58 % 1011,4 hPa 0,0 l/m 3,2 km/h (1 Bft) N 360 5 min 12,8 C 26,9 C 3,9 km/h (1 Bft)
08.08.2021 15:20 22,9 C 18,1 C 22,3 C 27,8 C 27,8 C 4,9 C 54 % 59 % 1011,6 hPa 0,0 l/m 2,7 km/h (1 Bft) NW 315 5 min 13,1 C 27,8 C 3,2 km/h (1 Bft)
08.08.2021 15:25 23,1 C 18,1 C 22,2 C 28,0 C 28,0 C 4,9 C 53 % 58 % 1011,6 hPa 0,0 l/m 2,4 km/h (1 Bft) SW 225 5 min 13,0 C 28,0 C 5,8 km/h (2 Bft)
08.08.2021 15:30 23,1 C 18,1 C 21,9 C 26,9 C 26,9 C 3,8 C 52 % 59 % 1011,6 hPa 0,0 l/m 2,6 km/h (1 Bft) W-SW 247 5 min 12,7 C 26,9 C 5,1 km/h (1 Bft)
08.08.2021 15:35 22,9 C 18,2 C 21,9 C 26,5 C 26,5 C 3,6 C 53 % 60 % 1011,6 hPa 0,0 l/m 2,9 km/h (1 Bft) W-SW 247 5 min 12,8 C 26,5 C 3,4 km/h (1 Bft)
08.08.2021 15:40 22,7 C 18,2 C 21,7 C 26,0 C 26,0 C 3,3 C 53 % 59 % 1011,8 hPa 0,0 l/m 3,2 km/h (1 Bft) W-SW 247 5 min 12,6 C 26,0 C 2,6 km/h (1 Bft)
08.08.2021 15:45 22,5 C 18,2 C 21,7 C 25,5 C 25,5 C 3,0 C 53 % 60 % 1011,8 hPa 0,0 l/m 3,2 km/h (1 Bft) NW 315 0 min 12,4 C 25,5 C 3,7 km/h (1 Bft)
08.08.2021 15:50 22,4 C 18,2 C 21,6 C 25,9 C 25,9 C 3,5 C 55 % 62 % 1011,8 hPa 0,0 l/m 3,1 km/h (1 Bft) S-SO 157 5 min 12,9 C 25,9 C 6,6 km/h (2 Bft)
08.08.2021 15:55 22,4 C 18,2 C 21,6 C 25,4 C 25,4 C 3,0 C 55 % 62 % 1011,8 hPa 0,0 l/m 2,7 km/h (1 Bft) S 180 0 min 12,9 C 25,4 C 5,6 km/h (1 Bft)
08.08.2021 16:00 22,4 C 18,2 C 21,7 C 26,0 C 26,0 C 3,6 C 55 % 63 % 1011,7 hPa 0,0 l/m 2,3 km/h (1 Bft) SW 225 5 min 12,9 C 26,0 C 2,4 km/h (1 Bft)
08.08.2021 16:05 22,5 C 18,2 C 21,7 C 26,2 C 26,2 C 3,7 C 56 % 63 % 1011,7 hPa 0,0 l/m 1,9 km/h (1 Bft) S-SW 202 5 min 13,3 C 26,2 C 2,4 km/h (1 Bft)
08.08.2021 16:11 22,5 C 18,2 C 21,7 C 26,5 C 26,5 C 4,0 C 55 % 61 % 1011,7 hPa 0,0 l/m 3,4 km/h (1 Bft) N 0 6 min 13,0 C 26,5 C 2,6 km/h (1 Bft)
08.08.2021 16:26 22,9 C 18,2 C 22,0 C 27,4 C 27,4 C 4,5 C 55 % 61 % 1011,9 hPa 0,0 l/m 2,3 km/h (1 Bft) SW 225 15 min 13,4 C 27,4 C 5,8 km/h (2 Bft)
08.08.2021 16:39 22,7 C 18,3 C 22,0 C 26,9 C 26,9 C 4,2 C 54 % 61 % 1011,9 hPa 0,0 l/m 2,7 km/h (1 Bft) SW 225 13 min 12,9 C 26,9 C 2,3 km/h (1 Bft)
08.08.2021 16:40 22,8 C 18,3 C 22,2 C 27,5 C 27,5 C 4,7 C 55 % 61 % 1011,9 hPa 0,0 l/m 1,9 km/h (1 Bft) W-SW 247 1 min 13,3 C 27,5 C 4,7 km/h (1 Bft)
08.08.2021 16:45 22,8 C 18,3 C 22,2 C 27,5 C 27,5 C 4,7 C 55 % 61 % 1011,9 hPa 0,0 l/m 1,9 km/h (1 Bft) W-SW 247 5 min 13,3 C 27,5 C 4,7 km/h (1 Bft)
08.08.2021 16:50 23,1 C 18,3 C 22,2 C 27,7 C 27,7 C 4,6 C 54 % 61 % 1011,9 hPa 0,0 l/m 1,9 km/h (1 Bft) S 180 5 min 13,3 C 27,7 C 0,0 km/h (0 Bft)
08.08.2021 16:55 23,0 C 18,3 C 22,1 C 27,3 C 27,3 C 4,3 C 54 % 61 % 1011,9 hPa 0,0 l/m 1,8 km/h (1 Bft) S-SW 202 5 min 13,2 C 27,3 C 2,3 km/h (1 Bft)
08.08.2021 17:00 23,1 C 18,3 C 22,2 C 27,1 C 27,1 C 4,0 C 54 % 60 % 1011,9 hPa 0,0 l/m 1,6 km/h (1 Bft) O-SO 112 5 min 13,3 C 27,1 C 0,0 km/h (0 Bft)
08.08.2021 17:05 23,3 C 18,3 C 22,2 C 26,8 C 26,8 C 3,5 C 54 % 60 % 1011,9 hPa 0,0 l/m 1,3 km/h (1 Bft) SW 225 5 min 13,5 C 26,8 C 1,8 km/h (1 Bft)
08.08.2021 17:10 23,3 C 18,3 C 22,2 C 26,5 C 26,5 C 3,2 C 53 % 60 % 1011,9 hPa 0,0 l/m 1,0 km/h (0 Bft) S 180 0 min 13,2 C 26,5 C 1,8 km/h (1 Bft)
08.08.2021 17:15 23,3 C 18,3 C 22,2 C 26,2 C 26,2 C 2,9 C 53 % 60 % 1011,9 hPa 0,0 l/m 1,3 km/h (1 Bft) S-SO 157 0 min 13,2 C 26,2 C 2,4 km/h (1 Bft)
08.08.2021 17:20 23,3 C 18,4 C 22,2 C 26,0 C 26,0 C 2,7 C 52 % 61 % 1012,3 hPa 0,0 l/m 1,4 km/h (1 Bft) S 180 0 min 12,9 C 26,0 C 2,4 km/h (1 Bft)
08.08.2021 17:25 23,3 C 18,4 C 21,9 C 25,3 C 25,3 C 2,0 C 53 % 61 % 1012,3 hPa 0,0 l/m 1,9 km/h (1 Bft) W-SW 247 0 min 13,2 C 25,3 C 3,1 km/h (1 Bft)
08.08.2021 17:30 22,9 C 18,4 C 21,8 C 24,8 C 24,8 C 1,9 C 54 % 62 % 1012,3 hPa 0,0 l/m 1,6 km/h (1 Bft) SW 225 0 min 13,1 C 24,8 C 0,0 km/h (0 Bft)
08.08.2021 17:35 22,9 C 18,4 C 21,6 C 24,5 C 24,5 C 1,6 C 53 % 61 % 1012,3 hPa 0,0 l/m 1,9 km/h (1 Bft) SW 225 0 min 12,8 C 24,5 C 3,4 km/h (1 Bft)
08.08.2021 17:40 22,7 C 18,4 C 21,5 C 23,8 C 23,8 C 1,1 C 54 % 62 % 1012,6 hPa 0,0 l/m 2,3 km/h (1 Bft) S 180 0 min 12,9 C 23,8 C 4,0 km/h (1 Bft)
08.08.2021 17:45 22,7 C 18,4 C 21,4 C 23,7 C 23,7 C 1,0 C 54 % 62 % 1012,6 hPa 0,0 l/m 1,8 km/h (1 Bft) W-NW 292 0 min 12,9 C 23,7 C 2,9 km/h (1 Bft)
08.08.2021 17:50 22,6 C 18,4 C 21,1 C 23,2 C 23,2 C 0,6 C 54 % 62 % 1012,6 hPa 0,0 l/m 1,4 km/h (1 Bft) SW 225 0 min 12,8 C 23,2 C 2,1 km/h (1 Bft)
08.08.2021 17:55 22,5 C 18,4 C 21,1 C 23,0 C 23,0 C 0,5 C 54 % 62 % 1012,6 hPa 0,0 l/m 1,4 km/h (1 Bft) W-SW 247 0 min 12,7 C 23,0 C 2,6 km/h (1 Bft)
08.08.2021 18:00 22,4 C 18,4 C 20,8 C 22,7 C 22,7 C 0,3 C 54 % 63 % 1012,2 hPa 0,0 l/m 1,1 km/h (1 Bft) W-SW 247 0 min 12,6 C 22,7 C 1,9 km/h (1 Bft)
08.08.2021 18:05 22,3 C 18,4 C 20,8 C 22,6 C 22,6 C 0,3 C 54 % 63 % 1012,2 hPa 0,0 l/m 1,0 km/h (0 Bft) SW 225 0 min 12,5 C 22,6 C 2,4 km/h (1 Bft)
08.08.2021 18:11 22,4 C 18,4 C 21,5 C 23,6 C 23,6 C 1,2 C 55 % 60 % 1012,2 hPa 0,0 l/m 1,3 km/h (1 Bft) N 0 0 min 12,9 C 23,6 C 2,1 km/h (1 Bft)
08.08.2021 18:26 22,9 C 18,5 C 21,8 C 24,0 C 24,0 C 1,1 C 51 % 59 % 1012,7 hPa 0,0 l/m 1,9 km/h (1 Bft) S 180 0 min 12,2 C 24,0 C 0,0 km/h (0 Bft)
08.08.2021 18:27 22,9 C 18,5 C 21,8 C 24,0 C 24,0 C 1,1 C 51 % 59 % 1012,7 hPa 0,0 l/m 1,9 km/h (1 Bft) S 180 0 min 12,2 C 24,0 C 0,0 km/h (0 Bft)
08.08.2021 18:30 22,9 C 18,5 C 21,8 C 24,0 C 24,0 C 1,1 C 51 % 59 % 1012,7 hPa 0,0 l/m 1,9 km/h (1 Bft) S 180 0 min 12,2 C 24,0 C 0,0 km/h (0 Bft)
08.08.2021 18:35 22,9 C 18,5 C 21,5 C 23,8 C 23,8 C 0,9 C 51 % 58 % 1012,7 hPa 0,0 l/m 2,1 km/h (1 Bft) S 180 0 min 12,2 C 23,8 C 3,1 km/h (1 Bft)
08.08.2021 18:40 22,7 C 18,5 C 21,3 C 23,2 C 23,2 C 0,5 C 52 % 58 % 1012,6 hPa 0,0 l/m 1,3 km/h (1 Bft) W-SW 247 0 min 12,3 C 23,2 C 1,9 km/h (1 Bft)
08.08.2021 18:45 22,7 C 18,5 C 21,5 C 23,1 C 23,1 C 0,4 C 51 % 58 % 1012,6 hPa 0,0 l/m 1,6 km/h (1 Bft) W-SW 247 0 min 12,0 C 23,1 C 3,2 km/h (1 Bft)
08.08.2021 18:50 22,8 C 18,5 C 21,6 C 23,5 C 23,5 C 0,7 C 51 % 58 % 1012,6 hPa 0,0 l/m 1,9 km/h (1 Bft) SW 225 0 min 12,1 C 23,5 C 0,0 km/h (0 Bft)
08.08.2021 18:55 22,9 C 18,5 C 21,6 C 23,6 C 23,6 C 0,7 C 52 % 60 % 1012,6 hPa 0,0 l/m 1,9 km/h (1 Bft) S-SW 202 0 min 12,5 C 23,6 C 1,6 km/h (1 Bft)
08.08.2021 19:00 22,9 C 18,5 C 21,4 C 23,5 C 23,5 C 0,6 C 52 % 60 % 1012,6 hPa 0,0 l/m 1,8 km/h (1 Bft) S-SW 202 0 min 12,5 C 23,5 C 4,3 km/h (1 Bft)
08.08.2021 19:05 22,8 C 18,5 C 21,4 C 23,4 C 23,4 C 0,6 C 52 % 60 % 1012,6 hPa 0,0 l/m 1,9 km/h (1 Bft) SW 225 0 min 12,4 C 23,4 C 3,9 km/h (1 Bft)
08.08.2021 19:10 22,7 C 18,5 C 21,3 C 23,3 C 23,3 C 0,6 C 52 % 60 % 1012,6 hPa 0,0 l/m 2,7 km/h (1 Bft) W 270 0 min 12,3 C 23,3 C 5,1 km/h (1 Bft)
08.08.2021 19:15 22,7 C 18,5 C 21,2 C 23,0 C 23,0 C 0,3 C 52 % 59 % 1012,6 hPa 0,0 l/m 2,9 km/h (1 Bft) S-SW 202 0 min 12,3 C 23,0 C 2,9 km/h (1 Bft)
08.08.2021 19:20 22,5 C 18,5 C 21,1 C 22,6 C 22,6 C 0,1 C 52 % 60 % 1012,9 hPa 0,0 l/m 2,4 km/h (1 Bft) SW 225 0 min 12,1 C 22,6 C 1,8 km/h (1 Bft)
08.08.2021 19:25 22,5 C 18,5 C 21,1 C 22,5 C 22,5 C 0,0 C 52 % 60 % 1012,9 hPa 0,0 l/m 1,8 km/h (1 Bft) SW 225 0 min 12,1 C 22,5 C 2,4 km/h (1 Bft)
08.08.2021 19:30 22,3 C 18,5 C 21,0 C 22,5 C 22,5 C 0,2 C 53 % 61 % 1012,9 hPa 0,0 l/m 1,4 km/h (1 Bft) SW 225 0 min 12,2 C 22,5 C 3,1 km/h (1 Bft)
08.08.2021 19:35 22,3 C 18,5 C 21,0 C 22,6 C 22,6 C 0,3 C 53 % 60 % 1012,9 hPa 0,0 l/m 1,8 km/h (1 Bft) SW 225 0 min 12,2 C 22,6 C 3,1 km/h (1 Bft)
08.08.2021 19:40 22,1 C 18,5 C 20,8 C 22,5 C 22,5 C 0,4 C 52 % 60 % 1012,9 hPa 0,0 l/m 2,1 km/h (1 Bft) S-SO 157 0 min 11,8 C 22,5 C 3,1 km/h (1 Bft)
08.08.2021 19:45 22,0 C 18,5 C 20,7 C 22,9 C 22,9 C 0,9 C 52 % 60 % 1012,9 hPa 0,0 l/m 1,8 km/h (1 Bft) W-SW 247 0 min 11,7 C 22,9 C 0,0 km/h (0 Bft)
08.08.2021 19:50 21,9 C 18,6 C 20,5 C 23,5 C 23,5 C 1,6 C 53 % 61 % 1012,9 hPa 0,0 l/m 1,4 km/h (1 Bft) S-SW 202 5 min 11,9 C 23,5 C 2,4 km/h (1 Bft)
08.08.2021 19:55 21,7 C 18,6 C 20,3 C 23,1 C 23,1 C 1,4 C 53 % 61 % 1012,9 hPa 0,0 l/m 1,1 km/h (1 Bft) S-SW 202 5 min 11,7 C 23,1 C 2,3 km/h (1 Bft)
08.08.2021 20:00 21,6 C 18,6 C 20,0 C 21,8 C 21,8 C 0,2 C 53 % 61 % 1013,2 hPa 0,0 l/m 1,1 km/h (1 Bft) W-SW 247 0 min 11,6 C 21,8 C 0,0 km/h (0 Bft)
08.08.2021 20:05 21,4 C 18,6 C 19,9 C 21,4 C 21,3 C 0,0 C 53 % 62 % 1013,2 hPa 0,0 l/m 1,3 km/h (1 Bft) S-SW 202 0 min 11,4 C 21,3 C 3,4 km/h (1 Bft)
08.08.2021 20:10 21,3 C 18,6 C 19,7 C 21,1 C 20,7 C 0,0 C 53 % 62 % 1013,2 hPa 0,0 l/m 1,6 km/h (1 Bft) SW 225 0 min 11,3 C 20,7 C 1,8 km/h (1 Bft)
08.08.2021 20:15 21,1 C 18,6 C 19,6 C 20,9 C 20,5 C 0,0 C 54 % 62 % 1013,2 hPa 0,0 l/m 1,4 km/h (1 Bft) SW 225 0 min 11,4 C 20,5 C 1,8 km/h (1 Bft)
08.08.2021 20:20 21,0 C 18,6 C 19,5 C 20,7 C 20,2 C 0,0 C 54 % 62 % 1013,4 hPa 0,0 l/m 1,0 km/h (0 Bft) S-SW 202 0 min 11,3 C 20,2 C 0,0 km/h (0 Bft)
08.08.2021 20:25 20,8 C 18,6 C 19,4 C 20,5 C 19,9 C 0,0 C 55 % 63 % 1013,4 hPa 0,0 l/m 0,8 km/h (0 Bft) W 270 0 min 11,4 C 19,9 C 1,9 km/h (1 Bft)
08.08.2021 20:30 20,7 C 18,6 C 19,2 C 20,4 C 19,8 C 0,0 C 55 % 63 % 1013,4 hPa 0,0 l/m 1,0 km/h (0 Bft) SW 225 0 min 11,3 C 19,8 C 1,8 km/h (1 Bft)
08.08.2021 20:35 20,7 C 18,6 C 19,1 C 20,3 C 19,6 C 0,0 C 56 % 63 % 1013,4 hPa 0,0 l/m 1,0 km/h (0 Bft) SW 225 0 min 11,6 C 19,6 C 1,6 km/h (1 Bft)
08.08.2021 20:40 20,4 C 18,6 C 19,0 C 20,0 C 19,3 C 0,0 C 56 % 64 % 1013,8 hPa 0,0 l/m 0,8 km/h (0 Bft) SW 225 0 min 11,3 C 19,3 C 1,9 km/h (1 Bft)
08.08.2021 20:45 20,4 C 18,6 C 18,9 C 20,0 C 19,1 C 0,0 C 56 % 64 % 1013,8 hPa 0,0 l/m 0,6 km/h (0 Bft) S 180 0 min 11,3 C 19,1 C 0,0 km/h (0 Bft)
08.08.2021 20:50 20,2 C 18,6 C 18,7 C 19,7 C 18,8 C 0,0 C 57 % 65 % 1013,8 hPa 0,0 l/m 0,5 km/h (0 Bft) SW 225 0 min 11,4 C 18,8 C 2,7 km/h (1 Bft)
08.08.2021 20:55 20,0 C 18,6 C 18,7 C 19,6 C 18,8 C 0,0 C 56 % 62 % 1013,8 hPa 0,0 l/m 2,1 km/h (1 Bft) SW 225 0 min 11,0 C 18,8 C 5,3 km/h (1 Bft)
08.08.2021 21:00 19,5 C 18,6 C 18,3 C 19,1 C 18,4 C 0,0 C 56 % 63 % 1014,8 hPa 0,0 l/m 4,0 km/h (1 Bft) SW 225 0 min 10,5 C 18,4 C 15,4 km/h (3 Bft)
08.08.2021 21:05 19,2 C 18,6 C 18,0 C 18,9 C 18,2 C 0,0 C 56 % 62 % 1014,8 hPa 0,0 l/m 3,5 km/h (1 Bft) S-SW 202 0 min 10,2 C 18,2 C 3,9 km/h (1 Bft)
08.08.2021 21:10 18,8 C 18,6 C 17,8 C 18,5 C 17,9 C 0,0 C 56 % 63 % 1014,8 hPa 0,0 l/m 2,9 km/h (1 Bft) W-SW 247 0 min 9,8 C 17,9 C 2,4 km/h (1 Bft)
08.08.2021 21:15 18,7 C 18,5 C 17,7 C 18,4 C 17,7 C 0,0 C 57 % 63 % 1014,8 hPa 0,0 l/m 2,7 km/h (1 Bft) SW 225 0 min 10,0 C 17,7 C 2,3 km/h (1 Bft)
08.08.2021 21:20 18,4 C 18,5 C 17,4 C 18,1 C 17,4 C 0,0 C 57 % 63 % 1014,9 hPa 0,0 l/m 2,6 km/h (1 Bft) W-SW 247 0 min 9,7 C 17,4 C 2,7 km/h (1 Bft)
08.08.2021 21:25 18,2 C 18,5 C 17,3 C 17,9 C 17,3 C 0,0 C 57 % 64 % 1014,9 hPa 0,0 l/m 2,3 km/h (1 Bft) S-SW 202 0 min 9,5 C 17,3 C 0,0 km/h (0 Bft)
08.08.2021 21:30 18,1 C 18,6 C 17,1 C 17,6 C 16,7 C 0,0 C 58 % 64 % 1014,9 hPa 0,0 l/m 1,6 km/h (1 Bft) SW 225 0 min 9,7 C 16,7 C 3,1 km/h (1 Bft)
08.08.2021 21:35 17,9 C 18,6 C 16,9 C 17,4 C 16,5 C 0,0 C 58 % 65 % 1014,9 hPa 0,0 l/m 1,3 km/h (1 Bft) W-SW 247 0 min 9,5 C 16,5 C 2,4 km/h (1 Bft)
08.08.2021 21:40 17,6 C 18,6 C 16,7 C 17,1 C 16,1 C 0,0 C 59 % 66 % 1015,2 hPa 0,0 l/m 1,0 km/h (0 Bft) SW 225 0 min 9,5 C 16,1 C 0,0 km/h (0 Bft)
08.08.2021 21:45 17,5 C 18,6 C 16,6 C 16,9 C 15,8 C 0,0 C 59 % 67 % 1015,2 hPa 0,0 l/m 0,3 km/h (0 Bft) W-SW 247 0 min 9,4 C 15,8 C 0,0 km/h (0 Bft)
08.08.2021 21:50 17,2 C 18,6 C 16,3 C 16,6 C 15,4 C 0,0 C 60 % 66 % 1015,2 hPa 0,0 l/m 0,0 km/h (0 Bft) S 180 0 min 9,4 C 15,4 C 0,0 km/h (0 Bft)
08.08.2021 21:55 17,1 C 18,6 C 16,2 C 16,5 C 15,2 C 0,0 C 60 % 67 % 1015,2 hPa 0,0 l/m 0,0 km/h (0 Bft) S 180 0 min 9,3 C 15,2 C 0,0 km/h (0 Bft)
08.08.2021 22:00 16,9 C 18,6 C 16,0 C 16,2 C 14,9 C 0,0 C 61 % 68 % 1015,4 hPa 0,0 l/m 0,0 km/h (0 Bft) S 180 0 min 9,3 C 14,9 C 0,0 km/h (0 Bft)
08.08.2021 22:05 16,7 C 18,5 C 15,9 C 16,0 C 14,7 C 0,0 C 62 % 69 % 1015,4 hPa 0,0 l/m 0,0 km/h (0 Bft) S 180 0 min 9,4 C 14,7 C 0,0 km/h (0 Bft)
08.08.2021 22:10 16,6 C 18,5 C 15,7 C 15,9 C 14,5 C 0,0 C 62 % 70 % 1015,4 hPa 0,0 l/m 0,0 km/h (0 Bft) S 180 0 min 9,3 C 14,5 C 0,0 km/h (0 Bft)
08.08.2021 22:15 16,4 C 18,5 C 15,4 C 15,7 C 14,3 C 0,0 C 63 % 71 % 1015,4 hPa 0,0 l/m 0,0 km/h (0 Bft) S 180 0 min 9,3 C 14,3 C 0,0 km/h (0 Bft)
08.08.2021 22:20 16,0 C 18,5 C 15,1 C 15,3 C 14,0 C 0,0 C 64 % 71 % 1015,6 hPa 0,0 l/m 0,0 km/h (0 Bft) O-SO 112 0 min 9,2 C 14,0 C 0,0 km/h (0 Bft)
08.08.2021 22:25 15,8 C 18,5 C 14,8 C 15,1 C 13,7 C 0,0 C 65 % 72 % 1015,6 hPa 0,0 l/m 0,0 km/h (0 Bft) O-SO 112 0 min 9,2 C 13,7 C 0,0 km/h (0 Bft)
08.08.2021 22:30 15,5 C 18,5 C 14,7 C 14,8 C 13,5 C 0,0 C 66 % 73 % 1015,6 hPa 0,0 l/m 0,0 km/h (0 Bft) O-SO 112 0 min 9,2 C 13,5 C 0,0 km/h (0 Bft)
08.08.2021 22:35 15,3 C 18,5 C 14,6 C 14,6 C 13,3 C 0,0 C 67 % 74 % 1015,6 hPa 0,0 l/m 0,0 km/h (0 Bft) O-SO 112 0 min 9,2 C 13,3 C 0,0 km/h (0 Bft)
08.08.2021 22:40 15,1 C 18,5 C 14,4 C 14,4 C 13,0 C 0,0 C 67 % 74 % 1015,8 hPa 0,0 l/m 0,0 km/h (0 Bft) O-SO 112 0 min 9,0 C 13,0 C 0,0 km/h (0 Bft)
08.08.2021 22:45 15,0 C 18,5 C 14,3 C 14,3 C 12,9 C 0,0 C 68 % 73 % 1015,8 hPa 0,0 l/m 0,0 km/h (0 Bft) O-SO 112 0 min 9,1 C 12,9 C 0,0 km/h (0 Bft)
08.08.2021 22:50 14,7 C 18,5 C 14,2 C 14,0 C 12,6 C 0,0 C 69 % 74 % 1015,8 hPa 0,0 l/m 0,0 km/h (0 Bft) O-SO 112 0 min 9,1 C 12,6 C 0,0 km/h (0 Bft)
08.08.2021 22:55 14,7 C 18,5 C 14,1 C 14,0 C 12,6 C 0,0 C 69 % 74 % 1015,8 hPa 0,0 l/m 0,0 km/h (0 Bft) SO 135 0 min 9,1 C 12,6 C 0,0 km/h (0 Bft)
08.08.2021 23:00 14,5 C 18,5 C 14,0 C 13,8 C 12,4 C 0,0 C 70 % 76 % 1016,2 hPa 0,0 l/m 0,0 km/h (0 Bft) SO 135 0 min 9,1 C 12,4 C 0,0 km/h (0 Bft)
08.08.2021 23:05 14,3 C 18,5 C 13,9 C 13,7 C 12,4 C 0,0 C 71 % 76 % 1016,2 hPa 0,0 l/m 0,0 km/h (0 Bft) O-SO 112 0 min 9,1 C 12,4 C 0,0 km/h (0 Bft)
08.08.2021 23:10 14,0 C 18,5 C 13,7 C 13,4 C 12,3 C 0,0 C 71 % 77 % 1016,2 hPa 0,0 l/m 0,0 km/h (0 Bft) O-SO 112 0 min 8,8 C 12,3 C 0,0 km/h (0 Bft)
08.08.2021 23:15 13,9 C 18,5 C 13,6 C 13,4 C 12,3 C 0,0 C 72 % 78 % 1016,2 hPa 0,0 l/m 0,0 km/h (0 Bft) O-SO 112 0 min 8,9 C 12,3 C 0,0 km/h (0 Bft)
08.08.2021 23:20 13,7 C 18,5 C 13,4 C 13,2 C 12,2 C 0,0 C 74 % 78 % 1016,1 hPa 0,0 l/m 0,3 km/h (0 Bft) O-NO 67 0 min 9,2 C 12,2 C 0,0 km/h (0 Bft)
08.08.2021 23:25 13,7 C 18,5 C 13,3 C 13,2 C 12,1 C 0,0 C 74 % 79 % 1016,1 hPa 0,0 l/m 0,3 km/h (0 Bft) O-NO 67 0 min 9,2 C 12,1 C 0,0 km/h (0 Bft)
08.08.2021 23:30 13,4 C 18,5 C 13,1 C 12,9 C 11,8 C 0,0 C 75 % 79 % 1016,1 hPa 0,0 l/m 0,0 km/h (0 Bft) O-NO 67 0 min 9,1 C 11,8 C 0,0 km/h (0 Bft)
08.08.2021 23:35 13,4 C 18,5 C 13,1 C 12,8 C 11,7 C 0,0 C 75 % 79 % 1016,1 hPa 0,0 l/m 0,0 km/h (0 Bft) O-NO 67 0 min 9,1 C 11,7 C 0,0 km/h (0 Bft)
08.08.2021 23:40 13,2 C 18,5 C 13,1 C 12,7 C 11,6 C 0,0 C 76 % 80 % 1016,4 hPa 0,0 l/m 0,0 km/h (0 Bft) O-NO 67 0 min 9,1 C 11,6 C 0,0 km/h (0 Bft)
08.08.2021 23:45 13,2 C 18,5 C 13,0 C 12,7 C 11,6 C 0,0 C 76 % 80 % 1016,4 hPa 0,0 l/m 0,0 km/h (0 Bft) O-NO 67 0 min 9,1 C 11,6 C 0,0 km/h (0 Bft)
08.08.2021 23:50 13,0 C 18,5 C 12,9 C 12,5 C 11,4 C 0,0 C 76 % 80 % 1016,4 hPa 0,0 l/m 0,0 km/h (0 Bft) O-NO 67 0 min 8,9 C 11,4 C 0,0 km/h (0 Bft)
08.08.2021 23:55 13,1 C 18,5 C 12,9 C 12,5 C 11,4 C 0,0 C 77 % 81 % 1016,4 hPa 0,0 l/m 0,0 km/h (0 Bft) O-NO 67 0 min 9,2 C 11,4 C 0,0 km/h (0 Bft)
_ Min-Zeit 05:35 10:26 23:50 23:50 23:50 19:25 14:55 14:55 00:26 - 00:00 - - - 23:10 23:50 00:00
Minimum _ 13,0 C 18,0 C 12,9 C 12,5 C 11,4 C 0,0 C 51 % 55 % 1004,6 hPa - 0,0 km/h (0 Bft) - - - 8,8 C 11,4 C 0,0 km/h (0 Bft)
_ Max-Zeit 14:05 00:00 14:11 14:11 14:11 08:05 03:55 05:20 23:40 00:00 13:30 - - 06:26 08:55 14:11 21:00
Maximum _ 23,6 C 19,6 C 23,0 C 28,9 C 28,9 C 10,0 C 88 % 94 % 1016,4 hPa 0,0 l/m 4,5 km/h
NW (1 Bft)
- - 15 min 16,1 C 28,9 C 15,4 km/h
SW (3 Bft)
Durchschnitt _ 18,0 C 18,6 C 17,7 C 20,1 C 20,0 C 2,2 C 71 % 79 % 1010,1 hPa #0,0 l/m 1,6 km/h (1 Bft) SW - #7:05 h 12,3 C 20,0 C 2,4 km/h (1 Bft)
2021 www.wetterstation-wechselburg.de